sensor_id;sensor_type;location;lat;lon;timestamp;P1;durP1;ratioP1;P2;durP2;ratioP2
36787;SDS011;22738;45.560;9.434;2023-07-31T00:01:20;12.10;;;6.50;;
36787;SDS011;22738;45.560;9.434;2023-07-31T00:08:01;11.55;;;5.85;;
36787;SDS011;22738;45.560;9.434;2023-07-31T00:14:42;12.32;;;6.20;;
36787;SDS011;22738;45.560;9.434;2023-07-31T00:21:25;9.38;;;6.43;;
36787;SDS011;22738;45.560;9.434;2023-07-31T00:28:06;13.60;;;7.03;;
36787;SDS011;22738;45.560;9.434;2023-07-31T00:34:47;10.05;;;6.53;;
36787;SDS011;22738;45.560;9.434;2023-07-31T00:41:28;9.55;;;7.13;;
36787;SDS011;22738;45.560;9.434;2023-07-31T00:48:09;10.68;;;7.05;;
36787;SDS011;22738;45.560;9.434;2023-07-31T00:54:50;12.05;;;7.43;;
36787;SDS011;22738;45.560;9.434;2023-07-31T01:01:31;14.73;;;7.03;;
36787;SDS011;22738;45.560;9.434;2023-07-31T01:08:15;11.43;;;6.43;;
36787;SDS011;22738;45.560;9.434;2023-07-31T01:15:08;11.30;;;7.32;;
36787;SDS011;22738;45.560;9.434;2023-07-31T01:28:55;10.57;;;6.20;;
36787;SDS011;22738;45.560;9.434;2023-07-31T01:35:43;8.63;;;6.67;;
36787;SDS011;22738;45.560;9.434;2023-07-31T01:42:26;14.38;;;6.82;;
36787;SDS011;22738;45.560;9.434;2023-07-31T01:49:07;9.73;;;7.00;;
36787;SDS011;22738;45.560;9.434;2023-07-31T01:55:48;9.02;;;5.95;;
36787;SDS011;22738;45.560;9.434;2023-07-31T02:02:29;7.82;;;5.28;;
36787;SDS011;22738;45.560;9.434;2023-07-31T02:09:13;7.95;;;6.25;;
36787;SDS011;22738;45.560;9.434;2023-07-31T02:15:56;9.88;;;5.60;;
36787;SDS011;22738;45.560;9.434;2023-07-31T02:22:37;7.03;;;5.13;;
36787;SDS011;22738;45.560;9.434;2023-07-31T02:29:19;9.70;;;6.20;;
36787;SDS011;22738;45.560;9.434;2023-07-31T02:36:00;6.63;;;5.18;;
36787;SDS011;22738;45.560;9.434;2023-07-31T02:42:41;7.97;;;5.90;;
36787;SDS011;22738;45.560;9.434;2023-07-31T02:49:22;7.35;;;6.28;;
36787;SDS011;22738;45.560;9.434;2023-07-31T02:56:03;10.10;;;6.60;;
36787;SDS011;22738;45.560;9.434;2023-07-31T03:02:44;8.27;;;6.05;;
36787;SDS011;22738;45.560;9.434;2023-07-31T03:09:25;10.25;;;6.13;;
36787;SDS011;22738;45.560;9.434;2023-07-31T03:16:06;8.50;;;6.78;;
36787;SDS011;22738;45.560;9.434;2023-07-31T03:22:47;12.43;;;5.93;;
36787;SDS011;22738;45.560;9.434;2023-07-31T03:29:28;8.77;;;5.82;;
36787;SDS011;22738;45.560;9.434;2023-07-31T03:36:09;14.40;;;8.23;;
36787;SDS011;22738;45.560;9.434;2023-07-31T03:42:51;17.20;;;7.22;;
36787;SDS011;22738;45.560;9.434;2023-07-31T03:49:32;10.57;;;5.63;;
36787;SDS011;22738;45.560;9.434;2023-07-31T03:56:13;12.70;;;6.28;;
36787;SDS011;22738;45.560;9.434;2023-07-31T04:02:54;9.25;;;5.78;;
36787;SDS011;22738;45.560;9.434;2023-07-31T04:09:35;10.82;;;6.10;;
36787;SDS011;22738;45.560;9.434;2023-07-31T04:16:16;9.95;;;6.70;;
36787;SDS011;22738;45.560;9.434;2023-07-31T04:22:57;8.40;;;6.18;;
36787;SDS011;22738;45.560;9.434;2023-07-31T04:29:39;10.32;;;5.88;;
36787;SDS011;22738;45.560;9.434;2023-07-31T04:36:22;8.18;;;5.30;;
36787;SDS011;22738;45.560;9.434;2023-07-31T04:43:03;8.45;;;5.10;;
36787;SDS011;22738;45.560;9.434;2023-07-31T04:49:45;9.07;;;6.28;;
36787;SDS011;22738;45.560;9.434;2023-07-31T04:56:26;10.40;;;5.75;;
36787;SDS011;22738;45.560;9.434;2023-07-31T05:03:07;9.77;;;6.75;;
36787;SDS011;22738;45.560;9.434;2023-07-31T05:09:48;7.97;;;5.47;;
36787;SDS011;22738;45.560;9.434;2023-07-31T05:16:29;8.75;;;5.45;;
36787;SDS011;22738;45.560;9.434;2023-07-31T05:23:10;10.93;;;6.25;;
36787;SDS011;22738;45.560;9.434;2023-07-31T05:29:51;7.75;;;4.57;;
36787;SDS011;22738;45.560;9.434;2023-07-31T05:36:32;8.45;;;5.38;;
36787;SDS011;22738;45.560;9.434;2023-07-31T05:43:13;8.27;;;5.38;;
36787;SDS011;22738;45.560;9.434;2023-07-31T05:49:55;7.63;;;5.22;;
36787;SDS011;22738;45.560;9.434;2023-07-31T05:56:36;9.52;;;5.25;;
36787;SDS011;22738;45.560;9.434;2023-07-31T06:03:17;11.35;;;5.22;;
36787;SDS011;22738;45.560;9.434;2023-07-31T06:09:59;6.43;;;4.20;;
36787;SDS011;22738;45.560;9.434;2023-07-31T06:16:46;7.05;;;4.03;;
36787;SDS011;22738;45.560;9.434;2023-07-31T06:23:27;6.65;;;4.07;;
36787;SDS011;22738;45.560;9.434;2023-07-31T06:30:08;7.40;;;4.43;;
36787;SDS011;22738;45.560;9.434;2023-07-31T06:36:50;8.38;;;4.00;;
36787;SDS011;22738;45.560;9.434;2023-07-31T06:43:32;9.50;;;4.03;;
36787;SDS011;22738;45.560;9.434;2023-07-31T06:50:13;7.03;;;3.42;;
36787;SDS011;22738;45.560;9.434;2023-07-31T06:56:54;5.35;;;3.22;;
36787;SDS011;22738;45.560;9.434;2023-07-31T07:03:35;11.27;;;4.68;;
36787;SDS011;22738;45.560;9.434;2023-07-31T07:10:18;6.32;;;3.47;;
36787;SDS011;22738;45.560;9.434;2023-07-31T07:16:59;5.53;;;3.10;;
36787;SDS011;22738;45.560;9.434;2023-07-31T07:23:40;3.80;;;2.83;;
36787;SDS011;22738;45.560;9.434;2023-07-31T07:30:21;7.97;;;2.85;;
36787;SDS011;22738;45.560;9.434;2023-07-31T07:37:05;6.03;;;2.85;;
36787;SDS011;22738;45.560;9.434;2023-07-31T07:43:46;4.80;;;2.30;;
36787;SDS011;22738;45.560;9.434;2023-07-31T07:50:27;2.72;;;2.08;;
36787;SDS011;22738;45.560;9.434;2023-07-31T07:57:09;6.87;;;2.13;;
36787;SDS011;22738;45.560;9.434;2023-07-31T08:03:52;5.72;;;2.50;;
36787;SDS011;22738;45.560;9.434;2023-07-31T08:10:33;6.85;;;2.45;;
36787;SDS011;22738;45.560;9.434;2023-07-31T08:17:14;4.18;;;2.60;;
36787;SDS011;22738;45.560;9.434;2023-07-31T08:23:55;5.78;;;2.47;;
36787;SDS011;22738;45.560;9.434;2023-07-31T08:30:36;4.25;;;2.55;;
36787;SDS011;22738;45.560;9.434;2023-07-31T08:37:17;2.97;;;2.13;;
36787;SDS011;22738;45.560;9.434;2023-07-31T08:43:58;5.05;;;2.15;;
36787;SDS011;22738;45.560;9.434;2023-07-31T08:50:41;5.00;;;2.58;;
36787;SDS011;22738;45.560;9.434;2023-07-31T08:57:23;4.75;;;2.33;;
36787;SDS011;22738;45.560;9.434;2023-07-31T09:04:05;3.85;;;2.83;;
36787;SDS011;22738;45.560;9.434;2023-07-31T09:10:47;3.87;;;2.60;;
36787;SDS011;22738;45.560;9.434;2023-07-31T09:17:31;3.90;;;2.90;;
36787;SDS011;22738;45.560;9.434;2023-07-31T09:24:24;5.72;;;2.60;;
36787;SDS011;22738;45.560;9.434;2023-07-31T09:31:09;5.47;;;3.25;;
36787;SDS011;22738;45.560;9.434;2023-07-31T09:37:53;8.40;;;4.50;;
36787;SDS011;22738;45.560;9.434;2023-07-31T09:44:38;5.10;;;3.30;;
36787;SDS011;22738;45.560;9.434;2023-07-31T09:51:27;5.15;;;3.65;;
36787;SDS011;22738;45.560;9.434;2023-07-31T09:58:09;6.22;;;3.28;;
36787;SDS011;22738;45.560;9.434;2023-07-31T10:04:51;4.00;;;2.95;;
36787;SDS011;22738;45.560;9.434;2023-07-31T10:11:41;6.03;;;3.80;;
36787;SDS011;22738;45.560;9.434;2023-07-31T10:18:25;3.88;;;2.60;;
36787;SDS011;22738;45.560;9.434;2023-07-31T10:25:07;6.20;;;2.60;;
36787;SDS011;22738;45.560;9.434;2023-07-31T10:38:32;3.80;;;2.70;;
36787;SDS011;22738;45.560;9.434;2023-07-31T10:45:13;9.18;;;5.13;;
36787;SDS011;22738;45.560;9.434;2023-07-31T10:51:55;9.70;;;5.93;;
36787;SDS011;22738;45.560;9.434;2023-07-31T10:58:36;7.90;;;5.47;;
36787;SDS011;22738;45.560;9.434;2023-07-31T11:05:19;7.30;;;5.45;;
36787;SDS011;22738;45.560;9.434;2023-07-31T11:12:02;6.75;;;4.95;;
36787;SDS011;22738;45.560;9.434;2023-07-31T11:18:45;8.77;;;5.97;;
36787;SDS011;22738;45.560;9.434;2023-07-31T11:25:28;6.32;;;4.63;;
36787;SDS011;22738;45.560;9.434;2023-07-31T11:32:15;5.10;;;3.90;;
36787;SDS011;22738;45.560;9.434;2023-07-31T11:39:06;8.30;;;5.97;;
36787;SDS011;22738;45.560;9.434;2023-07-31T11:45:50;4.18;;;3.78;;
36787;SDS011;22738;45.560;9.434;2023-07-31T11:52:37;6.82;;;4.75;;
36787;SDS011;22738;45.560;9.434;2023-07-31T11:59:23;6.78;;;4.53;;
36787;SDS011;22738;45.560;9.434;2023-07-31T12:06:04;5.97;;;3.83;;
36787;SDS011;22738;45.560;9.434;2023-07-31T12:12:54;3.38;;;2.95;;
36787;SDS011;22738;45.560;9.434;2023-07-31T12:19:48;6.22;;;4.38;;
36787;SDS011;22738;45.560;9.434;2023-07-31T12:26:35;5.40;;;4.00;;
36787;SDS011;22738;45.560;9.434;2023-07-31T12:33:16;5.18;;;4.38;;
36787;SDS011;22738;45.560;9.434;2023-07-31T12:39:59;5.72;;;3.10;;
36787;SDS011;22738;45.560;9.434;2023-07-31T12:46:44;7.25;;;4.20;;
36787;SDS011;22738;45.560;9.434;2023-07-31T12:53:25;5.10;;;3.88;;
36787;SDS011;22738;45.560;9.434;2023-07-31T13:00:06;3.40;;;3.00;;
36787;SDS011;22738;45.560;9.434;2023-07-31T13:06:48;4.53;;;3.22;;
36787;SDS011;22738;45.560;9.434;2023-07-31T13:13:29;6.50;;;4.03;;
36787;SDS011;22738;45.560;9.434;2023-07-31T13:20:11;8.00;;;3.10;;
36787;SDS011;22738;45.560;9.434;2023-07-31T13:26:53;4.88;;;3.63;;
36787;SDS011;22738;45.560;9.434;2023-07-31T13:33:34;5.43;;;4.18;;
36787;SDS011;22738;45.560;9.434;2023-07-31T13:40:15;6.10;;;3.97;;
36787;SDS011;22738;45.560;9.434;2023-07-31T13:46:56;8.63;;;3.97;;
36787;SDS011;22738;45.560;9.434;2023-07-31T13:53:37;4.53;;;3.33;;
36787;SDS011;22738;45.560;9.434;2023-07-31T14:00:20;5.38;;;3.17;;
36787;SDS011;22738;45.560;9.434;2023-07-31T14:07:01;5.93;;;3.70;;
36787;SDS011;22738;45.560;9.434;2023-07-31T14:13:42;6.32;;;5.28;;
36787;SDS011;22738;45.560;9.434;2023-07-31T14:20:23;5.07;;;3.38;;
36787;SDS011;22738;45.560;9.434;2023-07-31T14:27:04;9.65;;;4.95;;
36787;SDS011;22738;45.560;9.434;2023-07-31T14:33:45;4.93;;;3.20;;
36787;SDS011;22738;45.560;9.434;2023-07-31T14:40:26;3.92;;;3.33;;
36787;SDS011;22738;45.560;9.434;2023-07-31T14:47:08;9.15;;;3.65;;
36787;SDS011;22738;45.560;9.434;2023-07-31T14:53:49;7.57;;;4.25;;
36787;SDS011;22738;45.560;9.434;2023-07-31T15:00:30;5.88;;;3.78;;
36787;SDS011;22738;45.560;9.434;2023-07-31T15:07:11;6.18;;;3.53;;
36787;SDS011;22738;45.560;9.434;2023-07-31T15:13:54;10.25;;;4.35;;
36787;SDS011;22738;45.560;9.434;2023-07-31T15:20:36;6.40;;;3.42;;
36787;SDS011;22738;45.560;9.434;2023-07-31T15:27:18;5.97;;;3.20;;
36787;SDS011;22738;45.560;9.434;2023-07-31T15:34:01;4.63;;;3.28;;
36787;SDS011;22738;45.560;9.434;2023-07-31T15:40:43;5.55;;;4.10;;
36787;SDS011;22738;45.560;9.434;2023-07-31T15:47:26;6.68;;;4.22;;
36787;SDS011;22738;45.560;9.434;2023-07-31T15:54:07;4.43;;;3.15;;
36787;SDS011;22738;45.560;9.434;2023-07-31T16:00:48;6.80;;;3.63;;
36787;SDS011;22738;45.560;9.434;2023-07-31T16:07:29;5.10;;;3.28;;
36787;SDS011;22738;45.560;9.434;2023-07-31T16:14:10;4.22;;;3.47;;
36787;SDS011;22738;45.560;9.434;2023-07-31T16:20:52;4.20;;;3.05;;
36787;SDS011;22738;45.560;9.434;2023-07-31T16:27:36;6.07;;;3.25;;
36787;SDS011;22738;45.560;9.434;2023-07-31T16:34:17;3.90;;;3.08;;
36787;SDS011;22738;45.560;9.434;2023-07-31T16:40:58;4.40;;;3.30;;
36787;SDS011;22738;45.560;9.434;2023-07-31T16:47:39;8.02;;;3.47;;
36787;SDS011;22738;45.560;9.434;2023-07-31T16:54:20;5.65;;;3.78;;
36787;SDS011;22738;45.560;9.434;2023-07-31T17:01:02;9.30;;;3.47;;
36787;SDS011;22738;45.560;9.434;2023-07-31T17:07:44;5.27;;;3.70;;
36787;SDS011;22738;45.560;9.434;2023-07-31T17:14:25;4.07;;;3.30;;
36787;SDS011;22738;45.560;9.434;2023-07-31T17:21:06;5.97;;;4.18;;
36787;SDS011;22738;45.560;9.434;2023-07-31T17:27:48;5.00;;;3.30;;
36787;SDS011;22738;45.560;9.434;2023-07-31T17:34:31;7.57;;;4.38;;
36787;SDS011;22738;45.560;9.434;2023-07-31T17:41:12;4.85;;;3.47;;
36787;SDS011;22738;45.560;9.434;2023-07-31T17:47:54;4.20;;;3.03;;
36787;SDS011;22738;45.560;9.434;2023-07-31T17:54:35;7.50;;;4.30;;
36787;SDS011;22738;45.560;9.434;2023-07-31T18:01:17;6.83;;;4.33;;
36787;SDS011;22738;45.560;9.434;2023-07-31T18:07:58;6.78;;;4.60;;
36787;SDS011;22738;45.560;9.434;2023-07-31T18:14:39;9.15;;;4.82;;
36787;SDS011;22738;45.560;9.434;2023-07-31T18:21:20;9.07;;;4.57;;
36787;SDS011;22738;45.560;9.434;2023-07-31T18:28:02;7.32;;;5.47;;
36787;SDS011;22738;45.560;9.434;2023-07-31T18:34:43;13.32;;;5.78;;
36787;SDS011;22738;45.560;9.434;2023-07-31T18:41:25;10.32;;;5.43;;
36787;SDS011;22738;45.560;9.434;2023-07-31T18:48:06;7.73;;;4.80;;
36787;SDS011;22738;45.560;9.434;2023-07-31T18:54:49;9.30;;;5.32;;
36787;SDS011;22738;45.560;9.434;2023-07-31T19:01:30;8.23;;;5.43;;
36787;SDS011;22738;45.560;9.434;2023-07-31T19:08:11;5.95;;;4.97;;
36787;SDS011;22738;45.560;9.434;2023-07-31T19:14:52;9.63;;;3.47;;
36787;SDS011;22738;45.560;9.434;2023-07-31T19:21:33;7.20;;;3.67;;
36787;SDS011;22738;45.560;9.434;2023-07-31T19:28:14;8.27;;;3.55;;
36787;SDS011;22738;45.560;9.434;2023-07-31T19:34:55;18.02;;;6.88;;
36787;SDS011;22738;45.560;9.434;2023-07-31T19:41:37;17.55;;;5.63;;
36787;SDS011;22738;45.560;9.434;2023-07-31T19:55:05;8.63;;;4.90;;
36787;SDS011;22738;45.560;9.434;2023-07-31T20:01:46;15.68;;;5.10;;
36787;SDS011;22738;45.560;9.434;2023-07-31T20:08:28;9.82;;;5.95;;
36787;SDS011;22738;45.560;9.434;2023-07-31T20:15:20;8.30;;;5.80;;
36787;SDS011;22738;45.560;9.434;2023-07-31T20:22:02;6.43;;;4.93;;
36787;SDS011;22738;45.560;9.434;2023-07-31T20:28:44;6.70;;;5.18;;
36787;SDS011;22738;45.560;9.434;2023-07-31T20:35:29;11.07;;;6.60;;
36787;SDS011;22738;45.560;9.434;2023-07-31T20:42:11;9.48;;;5.10;;
36787;SDS011;22738;45.560;9.434;2023-07-31T20:48:55;6.90;;;5.20;;
36787;SDS011;22738;45.560;9.434;2023-07-31T20:55:39;6.15;;;4.65;;
36787;SDS011;22738;45.560;9.434;2023-07-31T21:02:22;10.70;;;7.65;;
36787;SDS011;22738;45.560;9.434;2023-07-31T21:09:03;14.07;;;7.03;;
36787;SDS011;22738;45.560;9.434;2023-07-31T21:15:44;11.38;;;8.57;;
36787;SDS011;22738;45.560;9.434;2023-07-31T21:22:25;15.30;;;8.45;;
36787;SDS011;22738;45.560;9.434;2023-07-31T21:29:07;12.93;;;9.27;;
36787;SDS011;22738;45.560;9.434;2023-07-31T21:35:48;9.35;;;7.88;;
36787;SDS011;22738;45.560;9.434;2023-07-31T21:42:30;9.80;;;7.47;;
36787;SDS011;22738;45.560;9.434;2023-07-31T21:49:11;9.77;;;7.40;;
36787;SDS011;22738;45.560;9.434;2023-07-31T21:55:52;12.90;;;8.73;;
36787;SDS011;22738;45.560;9.434;2023-07-31T22:02:33;13.20;;;8.95;;
36787;SDS011;22738;45.560;9.434;2023-07-31T22:09:14;9.70;;;7.85;;
36787;SDS011;22738;45.560;9.434;2023-07-31T22:15:55;16.05;;;9.00;;
36787;SDS011;22738;45.560;9.434;2023-07-31T22:22:36;15.55;;;7.90;;
36787;SDS011;22738;45.560;9.434;2023-07-31T22:29:17;11.07;;;8.30;;
36787;SDS011;22738;45.560;9.434;2023-07-31T22:36:01;12.65;;;8.27;;
36787;SDS011;22738;45.560;9.434;2023-07-31T22:42:42;7.68;;;6.30;;
36787;SDS011;22738;45.560;9.434;2023-07-31T22:49:26;7.15;;;5.22;;
36787;SDS011;22738;45.560;9.434;2023-07-31T22:56:07;10.68;;;6.60;;
36787;SDS011;22738;45.560;9.434;2023-07-31T23:02:48;10.57;;;7.22;;
36787;SDS011;22738;45.560;9.434;2023-07-31T23:09:30;8.38;;;6.47;;
36787;SDS011;22738;45.560;9.434;2023-07-31T23:16:11;10.52;;;7.07;;
36787;SDS011;22738;45.560;9.434;2023-07-31T23:22:52;8.82;;;6.13;;
36787;SDS011;22738;45.560;9.434;2023-07-31T23:29:33;18.40;;;8.07;;
36787;SDS011;22738;45.560;9.434;2023-07-31T23:36:16;9.15;;;7.22;;
36787;SDS011;22738;45.560;9.434;2023-07-31T23:42:58;8.20;;;6.53;;
36787;SDS011;22738;45.560;9.434;2023-07-31T23:49:41;10.77;;;7.43;;
36787;SDS011;22738;45.560;9.434;2023-07-31T23:56:22;10.38;;;6.82;;
